createdAt,value
2023-01-17T04:19:33.061Z,75.20
2023-01-17T04:22:04.614Z,75.80
2023-01-17T04:24:32.760Z,75.70
2023-01-17T04:27:01.018Z,74.70
2023-01-17T04:29:29.162Z,75.30
2023-01-17T04:31:57.406Z,72.60
2023-01-17T04:34:25.974Z,74.00
2023-01-17T04:36:55.545Z,72.90
2023-01-17T04:39:23.753Z,72.80
2023-01-17T04:41:51.938Z,72.60
2023-01-17T04:44:20.119Z,71.50
2023-01-17T04:46:48.301Z,71.80
2023-01-17T04:49:16.531Z,71.00
2023-01-17T04:51:44.643Z,72.00
2023-01-17T04:54:14.240Z,71.10
2023-01-17T04:56:42.408Z,70.60
2023-01-17T04:59:10.905Z,72.10
2023-01-17T05:01:39.185Z,71.00
2023-01-17T05:04:07.539Z,71.50
2023-01-17T05:06:35.715Z,71.50
2023-01-17T05:09:03.904Z,70.50
2023-01-17T05:11:34.844Z,71.70
2023-01-17T05:14:03.041Z,72.70
2023-01-17T05:16:31.208Z,72.60
2023-01-17T05:18:59.339Z,70.90
2023-01-17T05:21:27.558Z,70.60
2023-01-17T05:23:55.720Z,70.80
2023-01-17T05:26:23.885Z,71.20
2023-01-17T05:28:53.420Z,70.60
2023-01-17T05:31:21.682Z,70.50
2023-01-17T05:33:49.853Z,70.80
2023-01-17T05:36:19.215Z,72.40
2023-01-17T05:38:49.159Z,72.90
2023-01-17T05:41:17.305Z,72.10
2023-01-17T05:43:45.573Z,72.00
2023-01-17T05:46:16.115Z,72.70
2023-01-17T05:48:44.326Z,73.60
2023-01-17T05:51:12.557Z,73.30
2023-01-17T05:53:40.714Z,73.10
2023-01-17T05:56:09.181Z,73.60
2023-01-17T05:58:37.398Z,74.10
2023-01-17T06:01:05.634Z,75.20
2023-01-17T06:03:36.343Z,75.40
2023-01-17T06:06:04.572Z,74.90
2023-01-17T06:08:32.761Z,75.40
2023-01-17T06:11:00.961Z,75.40
2023-01-17T06:13:29.121Z,75.60
2023-01-17T06:16:02.684Z,75.40
2023-01-17T06:18:31.759Z,75.40
2023-01-17T06:21:01.429Z,75.40
2023-01-17T06:23:29.631Z,75.60
2023-01-17T06:25:57.781Z,76.90
2023-01-17T06:28:26.018Z,76.80
2023-01-17T06:30:54.293Z,78.00
2023-01-17T06:33:22.466Z,77.50
2023-01-17T06:35:51.124Z,78.40
2023-01-17T06:38:21.317Z,78.30
2023-01-17T06:40:49.587Z,77.90
2023-01-17T06:43:20.083Z,77.70
2023-01-17T06:45:51.081Z,78.40
2023-01-17T06:48:19.437Z,78.40
2023-01-17T06:50:49.705Z,79.30
2023-01-17T06:53:17.911Z,78.60
2023-01-17T06:55:47.444Z,78.40
2023-01-17T06:58:15.605Z,78.60
2023-01-17T07:00:44.599Z,78.70
2023-01-17T07:03:20.958Z,79.60
2023-01-17T07:05:49.764Z,79.20
2023-01-17T07:08:18.590Z,79.10
2023-01-17T07:10:49.235Z,78.90
2023-01-17T07:13:17.526Z,78.80
2023-01-17T07:15:45.727Z,79.10
2023-01-17T07:18:14.619Z,78.60
2023-01-17T07:20:44.873Z,79.60
2023-01-17T07:23:13.185Z,79.30
2023-01-17T07:25:41.356Z,80.20
2023-01-17T07:28:11.316Z,80.90
2023-01-17T07:30:39.503Z,80.20
2023-01-17T07:33:07.788Z,80.20
2023-01-17T07:35:36.026Z,79.70
2023-01-17T07:38:05.773Z,80.90
2023-01-17T07:40:41.808Z,81.40
2023-01-17T07:43:14.507Z,82.40
2023-01-17T07:45:43.948Z,82.60
2023-01-17T07:48:12.976Z,84.60
2023-01-17T07:50:41.108Z,84.50
2023-01-17T07:53:09.731Z,85.00
2023-01-17T07:55:37.916Z,86.60
2023-01-17T07:58:06.097Z,86.20
2023-01-17T08:00:35.690Z,87.00
2023-01-17T08:03:03.862Z,87.40
2023-01-17T08:05:32.061Z,86.80
2023-01-17T08:08:00.199Z,85.50
2023-01-17T08:10:28.394Z,86.40
2023-01-17T08:12:56.530Z,85.40
2023-01-17T08:15:26.646Z,84.50
2023-01-17T08:17:57.657Z,84.40
2023-01-17T08:20:27.914Z,83.60
2023-01-17T08:22:57.137Z,82.50
2023-01-17T08:25:27.151Z,80.70
2023-01-17T08:27:59.053Z,79.10
2023-01-17T08:30:27.756Z,78.40
2023-01-17T08:32:57.451Z,77.60
2023-01-17T08:35:26.543Z,77.10
2023-01-17T08:37:57.570Z,75.90
2023-01-17T08:40:25.937Z,76.90
2023-01-17T08:42:58.254Z,75.90
2023-01-17T08:45:26.882Z,76.40
2023-01-17T08:47:58.681Z,76.90
2023-01-17T08:50:27.213Z,75.80
2023-01-17T08:53:01.368Z,75.90
2023-01-17T08:55:29.989Z,73.50
2023-01-17T08:57:58.386Z,74.00
2023-01-17T09:00:27.131Z,74.00
2023-01-17T09:02:56.738Z,72.70
2023-01-17T09:05:24.998Z,73.20
2023-01-17T09:07:53.145Z,73.30
2023-01-17T09:10:23.225Z,73.20
2023-01-17T09:12:51.510Z,73.70
2023-01-17T09:15:20.235Z,72.30
2023-01-17T09:17:48.584Z,72.50
2023-01-17T09:20:18.898Z,72.20
2023-01-17T09:22:47.110Z,72.90
2023-01-17T09:25:18.101Z,73.40
2023-01-17T09:27:47.689Z,72.40
2023-01-17T09:30:16.796Z,71.40
2023-01-17T09:32:45.015Z,69.60
2023-01-17T09:35:13.578Z,68.90
2023-01-17T09:37:43.158Z,69.70
2023-01-17T09:40:16.892Z,68.80
2023-01-17T09:42:48.049Z,68.90
2023-01-17T09:45:19.612Z,69.00
2023-01-17T09:47:51.100Z,68.30
2023-01-17T09:50:31.418Z,67.90
2023-01-17T09:53:05.229Z,67.60
2023-01-17T09:55:41.246Z,67.50
2023-01-17T09:58:15.030Z,67.20
2023-01-17T10:00:54.523Z,66.90
2023-01-17T10:03:45.074Z,67.60
2023-01-17T10:06:29.943Z,66.10
2023-01-17T10:09:24.040Z,66.20
2023-01-17T10:12:10.308Z,66.30
2023-01-17T10:15:07.279Z,66.20
2023-01-17T10:17:47.584Z,66.30
2023-01-17T10:20:35.743Z,66.40
2023-01-17T10:23:26.666Z,65.80
2023-01-17T10:26:01.272Z,66.10
2023-01-17T10:28:36.571Z,64.80
2023-01-17T10:31:09.262Z,65.20
2023-01-17T10:33:42.765Z,64.30
2023-01-17T10:36:20.496Z,62.60
2023-01-17T10:38:51.848Z,63.10
2023-01-17T10:41:27.222Z,61.40
2023-01-17T10:44:06.136Z,61.80
2023-01-17T10:46:40.713Z,61.10
2023-01-17T10:49:18.064Z,61.20
2023-01-17T10:52:01.367Z,60.90
2023-01-17T10:54:49.930Z,57.20
2023-01-17T10:57:23.688Z,57.90
2023-01-17T10:59:52.749Z,56.70
2023-01-17T11:02:27.353Z,56.90
2023-01-17T11:04:57.353Z,57.80
2023-01-17T11:07:28.048Z,56.30
2023-01-17T11:09:58.165Z,57.30
2023-01-17T11:12:39.657Z,57.50
2023-01-17T11:15:25.759Z,57.90
2023-01-17T11:18:04.548Z,55.90
2023-01-17T11:20:37.227Z,56.10
2023-01-17T11:23:15.289Z,54.70
2023-01-17T11:25:51.539Z,53.50
2023-01-17T11:28:26.172Z,53.30
2023-01-17T11:30:56.676Z,54.40
2023-01-17T11:33:45.057Z,51.70
2023-01-17T11:36:22.778Z,51.10
2023-01-17T11:39:03.328Z,51.40
2023-01-17T11:41:36.814Z,50.00
2023-01-17T11:44:24.227Z,50.40
2023-01-17T11:47:17.025Z,49.40
2023-01-17T11:49:47.651Z,45.50
2023-01-17T11:52:24.536Z,42.80
2023-01-17T11:54:55.572Z,44.00
2023-01-17T11:57:28.145Z,44.20
2023-01-17T12:00:07.515Z,44.00
2023-01-17T12:03:18.306Z,43.70
2023-01-17T12:05:57.939Z,43.00
2023-01-17T12:08:46.124Z,39.60
2023-01-17T12:11:22.594Z,40.30
2023-01-17T12:14:04.309Z,40.70
2023-01-17T12:16:50.295Z,38.40
2023-01-17T12:19:48.944Z,40.50
2023-01-17T12:22:35.063Z,39.10
2023-01-17T12:25:25.078Z,36.20
2023-01-17T12:28:12.290Z,38.40
2023-01-17T12:30:58.677Z,36.40
2023-01-17T12:33:39.169Z,39.50
2023-01-17T12:36:17.608Z,39.10
2023-01-17T12:38:48.966Z,37.30
2023-01-17T12:41:23.372Z,36.50
2023-01-17T12:43:55.123Z,35.30
2023-01-17T12:46:30.219Z,36.90
2023-01-17T12:49:16.630Z,34.90
2023-01-17T12:51:50.098Z,37.30
2023-01-17T12:54:26.731Z,37.40
2023-01-17T12:57:00.380Z,36.80
2023-01-17T12:59:34.038Z,38.90
2023-01-17T13:02:16.775Z,40.40
2023-01-17T13:04:58.711Z,40.90
2023-01-17T13:07:38.841Z,39.40
2023-01-17T13:10:23.497Z,39.20
2023-01-17T13:12:53.102Z,40.60
2023-01-17T13:15:26.813Z,41.80
2023-01-17T13:18:03.841Z,40.70
2023-01-17T13:20:53.689Z,40.00
2023-01-17T13:23:30.795Z,39.20
2023-01-17T13:26:01.992Z,38.70
2023-01-17T13:28:45.818Z,40.10
2023-01-17T13:53:55.028Z,47.40
2023-01-17T13:56:35.074Z,48.10
2023-01-17T13:59:30.253Z,48.40
2023-01-17T14:01:58.828Z,48.80
2023-01-17T14:05:15.389Z,48.10
2023-01-17T14:07:48.729Z,43.40
2023-01-17T14:10:33.793Z,43.30
2023-01-17T14:13:03.423Z,43.30
2023-01-17T14:15:35.139Z,42.80
2023-01-17T14:18:26.706Z,42.20
2023-01-17T14:21:12.674Z,41.20
2023-01-17T14:24:05.467Z,40.40
2023-01-17T14:26:47.267Z,41.20
2023-01-17T14:29:50.907Z,40.90
2023-01-17T14:32:22.376Z,40.10
2023-01-17T14:34:53.107Z,41.60
2023-01-17T14:37:45.183Z,41.40
2023-01-17T14:40:20.562Z,40.40
2023-01-17T14:43:06.571Z,40.50
2023-01-17T14:45:37.096Z,40.00
2023-01-17T14:48:11.894Z,40.70
2023-01-17T14:50:44.883Z,40.70
2023-01-17T14:53:28.276Z,42.00
2023-01-17T14:56:01.582Z,43.60
2023-01-17T14:58:34.269Z,42.80
2023-01-17T15:01:08.982Z,43.80
2023-01-17T15:03:45.748Z,45.80
2023-01-17T15:06:19.862Z,46.40
2023-01-17T15:08:49.238Z,47.00
2023-01-17T15:11:22.332Z,48.60
2023-01-17T15:13:57.401Z,49.00
2023-01-17T15:16:28.649Z,48.30
2023-01-17T15:18:58.637Z,49.40
2023-01-17T15:21:30.895Z,50.70
2023-01-17T15:24:01.515Z,51.80
2023-01-17T15:26:43.680Z,51.50
2023-01-17T15:29:21.414Z,52.80
2023-01-17T15:31:52.303Z,53.00
2023-01-17T15:34:27.971Z,52.30
2023-01-17T15:36:59.068Z,54.10
2023-01-17T15:39:30.845Z,56.00
2023-01-17T15:42:04.657Z,54.40
2023-01-17T15:44:48.119Z,54.60
2023-01-17T15:47:29.837Z,55.40
2023-01-17T15:49:59.720Z,56.80
2023-01-17T15:52:28.800Z,57.80
2023-01-17T15:55:01.566Z,58.60
2023-01-17T15:57:36.832Z,57.80
2023-01-17T16:00:37.802Z,57.80
2023-01-17T16:03:23.102Z,58.00
2023-01-17T16:05:53.919Z,60.00
2023-01-17T16:08:39.205Z,61.20
2023-01-17T16:11:09.355Z,61.30
2023-01-17T16:13:42.164Z,61.10
2023-01-17T16:16:22.189Z,61.30
2023-01-17T16:19:04.101Z,61.10
2023-01-17T16:21:33.121Z,61.80
2023-01-17T16:24:02.887Z,63.40
2023-01-17T16:26:31.339Z,63.80
2023-01-17T16:28:59.847Z,62.90
2023-01-17T16:31:29.635Z,65.50
2023-01-17T16:33:58.098Z,64.80
2023-01-17T16:36:26.449Z,64.60
2023-01-17T16:38:54.749Z,65.80
2023-01-17T16:41:23.162Z,65.00
2023-01-17T16:44:00.712Z,64.30
2023-01-17T16:46:31.140Z,63.90
2023-01-17T16:49:01.651Z,64.60
2023-01-17T16:51:29.971Z,66.70
2023-01-17T16:53:58.348Z,67.10
2023-01-17T16:56:29.922Z,66.10
2023-01-17T16:58:58.290Z,66.20
2023-01-17T17:01:26.677Z,66.80
2023-01-17T17:03:56.801Z,66.10
2023-01-17T17:06:25.108Z,69.00
2023-01-17T17:08:53.446Z,69.20
2023-01-17T17:11:23.916Z,69.60
2023-01-17T17:13:53.203Z,68.30
2023-01-17T17:16:23.832Z,68.00
2023-01-17T17:18:59.421Z,68.80
2023-01-17T17:21:30.448Z,70.00
2023-01-17T17:24:01.066Z,67.90
2023-01-17T17:26:32.415Z,68.80
2023-01-17T17:29:00.725Z,69.20
2023-01-17T17:31:29.041Z,70.20
2023-01-17T17:34:01.548Z,70.60
2023-01-17T17:36:31.383Z,70.00
2023-01-17T17:39:01.822Z,70.70
2023-01-17T17:41:33.602Z,70.20
2023-01-17T17:44:03.119Z,71.00
2023-01-17T17:46:33.952Z,71.90
2023-01-17T17:49:05.860Z,71.90
2023-01-17T17:51:37.095Z,72.10
2023-01-17T17:54:09.495Z,72.30
2023-01-17T17:56:40.056Z,72.10
2023-01-17T17:59:10.289Z,73.40
2023-01-17T18:01:38.857Z,71.60
2023-01-17T18:04:11.622Z,71.50
2023-01-17T18:06:40.783Z,72.90
2023-01-17T18:09:11.355Z,72.80
2023-01-17T18:11:42.603Z,74.30
